sensor_id;sensor_type;location;lat;lon;timestamp;P1;durP1;ratioP1;P2;durP2;ratioP2
48911;SDS011;34722;52.108;5.044;2023-07-31T00:01:25;21.80;;;6.53;;
48911;SDS011;34722;52.108;5.044;2023-07-31T00:03:51;17.98;;;6.55;;
48911;SDS011;34722;52.108;5.044;2023-07-31T00:06:17;26.52;;;7.60;;
48911;SDS011;34722;52.108;5.044;2023-07-31T00:08:42;36.85;;;9.50;;
48911;SDS011;34722;52.108;5.044;2023-07-31T00:11:08;40.75;;;10.02;;
48911;SDS011;34722;52.108;5.044;2023-07-31T00:13:34;40.40;;;11.43;;
48911;SDS011;34722;52.108;5.044;2023-07-31T00:15:59;58.45;;;14.20;;
48911;SDS011;34722;52.108;5.044;2023-07-31T00:18:25;57.85;;;13.30;;
48911;SDS011;34722;52.108;5.044;2023-07-31T00:20:51;54.83;;;14.93;;
48911;SDS011;34722;52.108;5.044;2023-07-31T00:23:17;63.55;;;12.80;;
48911;SDS011;34722;52.108;5.044;2023-07-31T00:25:43;58.50;;;14.25;;
48911;SDS011;34722;52.108;5.044;2023-07-31T00:28:08;45.38;;;12.77;;
48911;SDS011;34722;52.108;5.044;2023-07-31T00:30:35;55.20;;;13.85;;
48911;SDS011;34722;52.108;5.044;2023-07-31T00:33:01;68.05;;;15.30;;
48911;SDS011;34722;52.108;5.044;2023-07-31T00:35:26;53.60;;;12.30;;
48911;SDS011;34722;52.108;5.044;2023-07-31T00:37:52;44.50;;;12.75;;
48911;SDS011;34722;52.108;5.044;2023-07-31T00:40:17;56.92;;;12.00;;
48911;SDS011;34722;52.108;5.044;2023-07-31T00:42:43;46.25;;;10.85;;
48911;SDS011;34722;52.108;5.044;2023-07-31T00:45:09;48.80;;;10.48;;
48911;SDS011;34722;52.108;5.044;2023-07-31T00:47:35;51.53;;;12.20;;
48911;SDS011;34722;52.108;5.044;2023-07-31T00:50:00;46.40;;;9.90;;
48911;SDS011;34722;52.108;5.044;2023-07-31T00:52:26;39.33;;;9.38;;
48911;SDS011;34722;52.108;5.044;2023-07-31T00:54:51;24.55;;;7.07;;
48911;SDS011;34722;52.108;5.044;2023-07-31T00:57:17;16.85;;;6.18;;
48911;SDS011;34722;52.108;5.044;2023-07-31T00:59:43;29.70;;;6.43;;
48911;SDS011;34722;52.108;5.044;2023-07-31T01:02:09;22.92;;;6.32;;
48911;SDS011;34722;52.108;5.044;2023-07-31T01:04:35;32.03;;;8.52;;
48911;SDS011;34722;52.108;5.044;2023-07-31T01:10:00;42.38;;;9.52;;
48911;SDS011;34722;52.108;5.044;2023-07-31T01:12:29;44.08;;;10.75;;
48911;SDS011;34722;52.108;5.044;2023-07-31T01:15:06;42.58;;;9.80;;
48911;SDS011;34722;52.108;5.044;2023-07-31T01:17:38;54.95;;;10.77;;
48911;SDS011;34722;52.108;5.044;2023-07-31T01:20:10;44.08;;;9.80;;
48911;SDS011;34722;52.108;5.044;2023-07-31T01:26:12;44.22;;;11.68;;
48911;SDS011;34722;52.108;5.044;2023-07-31T01:28:55;42.40;;;9.38;;
48911;SDS011;34722;52.108;5.044;2023-07-31T01:31:26;42.13;;;9.20;;
48911;SDS011;34722;52.108;5.044;2023-07-31T01:33:56;47.65;;;10.95;;
48911;SDS011;34722;52.108;5.044;2023-07-31T01:36:25;37.85;;;10.00;;
48911;SDS011;34722;52.108;5.044;2023-07-31T01:38:51;39.83;;;9.43;;
48911;SDS011;34722;52.108;5.044;2023-07-31T01:41:17;47.00;;;10.77;;
48911;SDS011;34722;52.108;5.044;2023-07-31T01:43:44;37.83;;;10.98;;
48911;SDS011;34722;52.108;5.044;2023-07-31T01:46:10;50.63;;;11.23;;
48911;SDS011;34722;52.108;5.044;2023-07-31T01:48:36;36.78;;;9.80;;
48911;SDS011;34722;52.108;5.044;2023-07-31T01:51:02;46.92;;;11.10;;
48911;SDS011;34722;52.108;5.044;2023-07-31T01:53:28;29.02;;;8.52;;
48911;SDS011;34722;52.108;5.044;2023-07-31T01:55:55;28.95;;;7.90;;
48911;SDS011;34722;52.108;5.044;2023-07-31T01:58:20;36.78;;;9.02;;
48911;SDS011;34722;52.108;5.044;2023-07-31T02:00:46;35.72;;;8.68;;
48911;SDS011;34722;52.108;5.044;2023-07-31T02:06:30;40.53;;;10.65;;
48911;SDS011;34722;52.108;5.044;2023-07-31T02:08:56;38.85;;;9.25;;
48911;SDS011;34722;52.108;5.044;2023-07-31T02:11:21;43.33;;;9.77;;
48911;SDS011;34722;52.108;5.044;2023-07-31T02:13:47;45.05;;;10.95;;
48911;SDS011;34722;52.108;5.044;2023-07-31T02:16:12;37.00;;;10.05;;
48911;SDS011;34722;52.108;5.044;2023-07-31T02:18:38;41.67;;;10.05;;
48911;SDS011;34722;52.108;5.044;2023-07-31T02:21:04;31.23;;;9.30;;
48911;SDS011;34722;52.108;5.044;2023-07-31T02:23:29;49.45;;;12.57;;
48911;SDS011;34722;52.108;5.044;2023-07-31T02:25:55;33.22;;;9.52;;
48911;SDS011;34722;52.108;5.044;2023-07-31T02:28:20;49.17;;;9.82;;
48911;SDS011;34722;52.108;5.044;2023-07-31T02:30:46;35.20;;;8.73;;
48911;SDS011;34722;52.108;5.044;2023-07-31T02:33:12;43.78;;;10.20;;
48911;SDS011;34722;52.108;5.044;2023-07-31T02:35:37;45.85;;;10.63;;
48911;SDS011;34722;52.108;5.044;2023-07-31T02:38:03;39.88;;;9.32;;
48911;SDS011;34722;52.108;5.044;2023-07-31T02:40:29;48.28;;;10.23;;
48911;SDS011;34722;52.108;5.044;2023-07-31T02:42:54;46.08;;;10.65;;
48911;SDS011;34722;52.108;5.044;2023-07-31T02:45:20;36.22;;;10.27;;
48911;SDS011;34722;52.108;5.044;2023-07-31T02:47:46;50.63;;;12.93;;
48911;SDS011;34722;52.108;5.044;2023-07-31T02:50:11;36.75;;;10.82;;
48911;SDS011;34722;52.108;5.044;2023-07-31T02:55:25;50.60;;;11.30;;
48911;SDS011;34722;52.108;5.044;2023-07-31T02:57:50;33.70;;;10.93;;
48911;SDS011;34722;52.108;5.044;2023-07-31T03:00:17;51.33;;;11.20;;
48911;SDS011;34722;52.108;5.044;2023-07-31T03:02:43;39.88;;;10.55;;
48911;SDS011;34722;52.108;5.044;2023-07-31T03:05:08;48.42;;;11.82;;
48911;SDS011;34722;52.108;5.044;2023-07-31T03:07:34;47.00;;;10.35;;
48911;SDS011;34722;52.108;5.044;2023-07-31T03:09:59;43.63;;;11.80;;
48911;SDS011;34722;52.108;5.044;2023-07-31T03:12:25;31.33;;;10.80;;
48911;SDS011;34722;52.108;5.044;2023-07-31T03:14:51;43.20;;;9.55;;
48911;SDS011;34722;52.108;5.044;2023-07-31T03:17:16;32.75;;;9.75;;
48911;SDS011;34722;52.108;5.044;2023-07-31T03:19:42;28.17;;;9.50;;
48911;SDS011;34722;52.108;5.044;2023-07-31T03:22:07;35.97;;;11.30;;
48911;SDS011;34722;52.108;5.044;2023-07-31T03:24:33;34.17;;;10.50;;
48911;SDS011;34722;52.108;5.044;2023-07-31T03:26:58;46.47;;;12.55;;
48911;SDS011;34722;52.108;5.044;2023-07-31T03:29:24;41.03;;;9.48;;
48911;SDS011;34722;52.108;5.044;2023-07-31T03:31:49;42.85;;;10.23;;
48911;SDS011;34722;52.108;5.044;2023-07-31T03:34:15;31.90;;;9.13;;
48911;SDS011;34722;52.108;5.044;2023-07-31T03:36:42;38.40;;;9.45;;
48911;SDS011;34722;52.108;5.044;2023-07-31T03:39:07;33.40;;;8.75;;
48911;SDS011;34722;52.108;5.044;2023-07-31T03:41:33;35.92;;;9.82;;
48911;SDS011;34722;52.108;5.044;2023-07-31T03:43:58;33.63;;;10.27;;
48911;SDS011;34722;52.108;5.044;2023-07-31T03:46:24;34.03;;;10.73;;
48911;SDS011;34722;52.108;5.044;2023-07-31T03:48:50;45.10;;;11.98;;
48911;SDS011;34722;52.108;5.044;2023-07-31T03:51:16;33.33;;;9.25;;
48911;SDS011;34722;52.108;5.044;2023-07-31T03:53:42;31.52;;;9.60;;
48911;SDS011;34722;52.108;5.044;2023-07-31T03:56:08;28.30;;;10.02;;
48911;SDS011;34722;52.108;5.044;2023-07-31T03:58:34;36.42;;;11.43;;
48911;SDS011;34722;52.108;5.044;2023-07-31T04:01:01;33.53;;;9.85;;
48911;SDS011;34722;52.108;5.044;2023-07-31T04:03:26;35.20;;;11.10;;
48911;SDS011;34722;52.108;5.044;2023-07-31T04:05:53;33.58;;;10.38;;
48911;SDS011;34722;52.108;5.044;2023-07-31T04:08:20;30.55;;;10.23;;
48911;SDS011;34722;52.108;5.044;2023-07-31T04:10:46;34.75;;;10.65;;
48911;SDS011;34722;52.108;5.044;2023-07-31T04:13:12;35.00;;;11.65;;
48911;SDS011;34722;52.108;5.044;2023-07-31T04:15:38;34.63;;;9.68;;
48911;SDS011;34722;52.108;5.044;2023-07-31T04:18:04;26.05;;;10.27;;
48911;SDS011;34722;52.108;5.044;2023-07-31T04:20:30;40.38;;;11.43;;
48911;SDS011;34722;52.108;5.044;2023-07-31T04:22:55;44.65;;;11.13;;
48911;SDS011;34722;52.108;5.044;2023-07-31T04:25:21;39.53;;;11.77;;
48911;SDS011;34722;52.108;5.044;2023-07-31T04:27:47;39.75;;;10.70;;
48911;SDS011;34722;52.108;5.044;2023-07-31T04:30:13;29.38;;;10.13;;
48911;SDS011;34722;52.108;5.044;2023-07-31T04:32:39;39.55;;;11.68;;
48911;SDS011;34722;52.108;5.044;2023-07-31T04:35:04;36.33;;;10.75;;
48911;SDS011;34722;52.108;5.044;2023-07-31T04:37:30;39.22;;;11.10;;
48911;SDS011;34722;52.108;5.044;2023-07-31T04:39:56;26.98;;;10.25;;
48911;SDS011;34722;52.108;5.044;2023-07-31T04:42:22;28.35;;;11.13;;
48911;SDS011;34722;52.108;5.044;2023-07-31T04:44:47;30.88;;;11.30;;
48911;SDS011;34722;52.108;5.044;2023-07-31T04:47:13;33.33;;;10.70;;
48911;SDS011;34722;52.108;5.044;2023-07-31T04:49:38;31.42;;;10.95;;
48911;SDS011;34722;52.108;5.044;2023-07-31T04:52:04;30.17;;;10.75;;
48911;SDS011;34722;52.108;5.044;2023-07-31T04:54:30;33.17;;;10.57;;
48911;SDS011;34722;52.108;5.044;2023-07-31T04:56:55;40.20;;;11.45;;
48911;SDS011;34722;52.108;5.044;2023-07-31T04:59:28;38.90;;;11.07;;
48911;SDS011;34722;52.108;5.044;2023-07-31T05:01:54;31.90;;;9.48;;
48911;SDS011;34722;52.108;5.044;2023-07-31T05:04:20;34.22;;;10.38;;
48911;SDS011;34722;52.108;5.044;2023-07-31T05:06:45;24.67;;;11.10;;
48911;SDS011;34722;52.108;5.044;2023-07-31T05:09:11;24.50;;;11.75;;
48911;SDS011;34722;52.108;5.044;2023-07-31T05:11:37;26.60;;;10.63;;
48911;SDS011;34722;52.108;5.044;2023-07-31T05:14:03;26.88;;;9.90;;
48911;SDS011;34722;52.108;5.044;2023-07-31T05:16:28;22.38;;;8.90;;
48911;SDS011;34722;52.108;5.044;2023-07-31T05:18:54;22.98;;;8.13;;
48911;SDS011;34722;52.108;5.044;2023-07-31T05:21:20;21.73;;;8.50;;
48911;SDS011;34722;52.108;5.044;2023-07-31T05:23:45;21.92;;;8.25;;
48911;SDS011;34722;52.108;5.044;2023-07-31T05:26:12;23.75;;;7.75;;
48911;SDS011;34722;52.108;5.044;2023-07-31T05:28:38;25.95;;;7.78;;
48911;SDS011;34722;52.108;5.044;2023-07-31T05:31:04;25.35;;;7.70;;
48911;SDS011;34722;52.108;5.044;2023-07-31T05:33:31;22.00;;;7.70;;
48911;SDS011;34722;52.108;5.044;2023-07-31T05:35:57;27.30;;;7.40;;
48911;SDS011;34722;52.108;5.044;2023-07-31T05:38:23;21.65;;;7.75;;
48911;SDS011;34722;52.108;5.044;2023-07-31T05:40:49;20.25;;;7.82;;
48911;SDS011;34722;52.108;5.044;2023-07-31T05:43:14;26.17;;;7.82;;
48911;SDS011;34722;52.108;5.044;2023-07-31T05:45:41;27.00;;;8.40;;
48911;SDS011;34722;52.108;5.044;2023-07-31T05:48:07;23.10;;;7.38;;
48911;SDS011;34722;52.108;5.044;2023-07-31T05:50:33;28.95;;;7.95;;
48911;SDS011;34722;52.108;5.044;2023-07-31T05:52:58;27.63;;;8.88;;
48911;SDS011;34722;52.108;5.044;2023-07-31T05:55:24;23.42;;;9.05;;
48911;SDS011;34722;52.108;5.044;2023-07-31T05:57:53;20.55;;;7.78;;
48911;SDS011;34722;52.108;5.044;2023-07-31T06:00:19;29.13;;;8.43;;
48911;SDS011;34722;52.108;5.044;2023-07-31T06:02:45;19.05;;;7.55;;
48911;SDS011;34722;52.108;5.044;2023-07-31T06:05:12;23.58;;;8.40;;
48911;SDS011;34722;52.108;5.044;2023-07-31T06:07:38;17.77;;;7.25;;
48911;SDS011;34722;52.108;5.044;2023-07-31T06:10:04;23.80;;;7.75;;
48911;SDS011;34722;52.108;5.044;2023-07-31T06:12:33;18.40;;;7.22;;
48911;SDS011;34722;52.108;5.044;2023-07-31T06:15:00;17.83;;;7.07;;
48911;SDS011;34722;52.108;5.044;2023-07-31T06:17:26;17.00;;;6.63;;
48911;SDS011;34722;52.108;5.044;2023-07-31T06:19:51;21.83;;;6.80;;
48911;SDS011;34722;52.108;5.044;2023-07-31T06:22:17;22.17;;;7.70;;
48911;SDS011;34722;52.108;5.044;2023-07-31T06:24:43;18.73;;;6.07;;
48911;SDS011;34722;52.108;5.044;2023-07-31T06:27:09;20.50;;;7.45;;
48911;SDS011;34722;52.108;5.044;2023-07-31T06:29:35;17.05;;;6.18;;
48911;SDS011;34722;52.108;5.044;2023-07-31T06:32:01;16.02;;;5.68;;
48911;SDS011;34722;52.108;5.044;2023-07-31T06:34:27;14.27;;;6.15;;
48911;SDS011;34722;52.108;5.044;2023-07-31T06:36:53;15.30;;;5.75;;
48911;SDS011;34722;52.108;5.044;2023-07-31T06:39:18;18.08;;;6.53;;
48911;SDS011;34722;52.108;5.044;2023-07-31T06:41:44;13.48;;;6.78;;
48911;SDS011;34722;52.108;5.044;2023-07-31T06:44:10;13.50;;;6.10;;
48911;SDS011;34722;52.108;5.044;2023-07-31T06:46:36;13.95;;;6.10;;
48911;SDS011;34722;52.108;5.044;2023-07-31T06:49:02;15.48;;;6.63;;
48911;SDS011;34722;52.108;5.044;2023-07-31T06:51:27;14.27;;;5.95;;
48911;SDS011;34722;52.108;5.044;2023-07-31T06:53:53;16.85;;;6.53;;
48911;SDS011;34722;52.108;5.044;2023-07-31T06:56:19;17.23;;;6.38;;
48911;SDS011;34722;52.108;5.044;2023-07-31T06:58:47;19.55;;;7.07;;
48911;SDS011;34722;52.108;5.044;2023-07-31T07:01:13;15.25;;;5.95;;
48911;SDS011;34722;52.108;5.044;2023-07-31T07:03:39;15.32;;;5.70;;
48911;SDS011;34722;52.108;5.044;2023-07-31T07:06:04;15.82;;;5.43;;
48911;SDS011;34722;52.108;5.044;2023-07-31T07:08:31;8.18;;;5.50;;
48911;SDS011;34722;52.108;5.044;2023-07-31T07:10:56;10.30;;;4.32;;
48911;SDS011;34722;52.108;5.044;2023-07-31T07:13:22;12.77;;;4.78;;
48911;SDS011;34722;52.108;5.044;2023-07-31T07:15:48;7.65;;;4.22;;
48911;SDS011;34722;52.108;5.044;2023-07-31T07:18:14;10.23;;;4.35;;
48911;SDS011;34722;52.108;5.044;2023-07-31T07:20:45;7.13;;;3.95;;
48911;SDS011;34722;52.108;5.044;2023-07-31T07:23:12;11.73;;;4.50;;
48911;SDS011;34722;52.108;5.044;2023-07-31T07:25:38;11.13;;;4.40;;
48911;SDS011;34722;52.108;5.044;2023-07-31T07:28:03;11.70;;;5.18;;
48911;SDS011;34722;52.108;5.044;2023-07-31T07:30:29;7.72;;;4.32;;
48911;SDS011;34722;52.108;5.044;2023-07-31T07:32:54;6.63;;;3.35;;
48911;SDS011;34722;52.108;5.044;2023-07-31T07:35:20;6.85;;;4.15;;
48911;SDS011;34722;52.108;5.044;2023-07-31T07:37:48;5.35;;;3.40;;
48911;SDS011;34722;52.108;5.044;2023-07-31T07:40:15;8.77;;;4.07;;
48911;SDS011;34722;52.108;5.044;2023-07-31T07:42:40;6.88;;;3.70;;
48911;SDS011;34722;52.108;5.044;2023-07-31T07:45:06;7.22;;;3.22;;
48911;SDS011;34722;52.108;5.044;2023-07-31T07:47:32;7.93;;;3.45;;
48911;SDS011;34722;52.108;5.044;2023-07-31T07:49:58;6.10;;;3.35;;
48911;SDS011;34722;52.108;5.044;2023-07-31T07:52:24;4.95;;;2.63;;
48911;SDS011;34722;52.108;5.044;2023-07-31T07:54:49;3.75;;;3.08;;
48911;SDS011;34722;52.108;5.044;2023-07-31T07:57:15;10.88;;;3.35;;
48911;SDS011;34722;52.108;5.044;2023-07-31T07:59:41;3.90;;;2.58;;
48911;SDS011;34722;52.108;5.044;2023-07-31T08:02:07;3.67;;;2.95;;
48911;SDS011;34722;52.108;5.044;2023-07-31T08:04:32;5.03;;;3.10;;
48911;SDS011;34722;52.108;5.044;2023-07-31T08:06:58;7.43;;;3.72;;
48911;SDS011;34722;52.108;5.044;2023-07-31T08:09:24;3.53;;;2.45;;
48911;SDS011;34722;52.108;5.044;2023-07-31T08:11:50;5.22;;;3.22;;
48911;SDS011;34722;52.108;5.044;2023-07-31T08:14:15;5.18;;;3.15;;
48911;SDS011;34722;52.108;5.044;2023-07-31T08:16:41;4.38;;;2.70;;
48911;SDS011;34722;52.108;5.044;2023-07-31T08:19:07;4.93;;;2.60;;
48911;SDS011;34722;52.108;5.044;2023-07-31T08:21:33;3.33;;;2.30;;
48911;SDS011;34722;52.108;5.044;2023-07-31T08:24:00;5.82;;;2.75;;
48911;SDS011;34722;52.108;5.044;2023-07-31T08:26:33;4.72;;;3.53;;
48911;SDS011;34722;52.108;5.044;2023-07-31T08:28:59;3.88;;;2.90;;
48911;SDS011;34722;52.108;5.044;2023-07-31T08:31:25;3.83;;;2.60;;
48911;SDS011;34722;52.108;5.044;2023-07-31T08:33:52;2.83;;;2.40;;
48911;SDS011;34722;52.108;5.044;2023-07-31T08:36:17;2.33;;;2.10;;
48911;SDS011;34722;52.108;5.044;2023-07-31T08:38:44;2.67;;;2.00;;
48911;SDS011;34722;52.108;5.044;2023-07-31T08:41:11;2.40;;;2.20;;
48911;SDS011;34722;52.108;5.044;2023-07-31T08:43:38;3.45;;;2.15;;
48911;SDS011;34722;52.108;5.044;2023-07-31T08:46:04;2.47;;;2.17;;
48911;SDS011;34722;52.108;5.044;2023-07-31T08:48:31;2.72;;;2.00;;
48911;SDS011;34722;52.108;5.044;2023-07-31T08:51:04;3.03;;;2.30;;
48911;SDS011;34722;52.108;5.044;2023-07-31T08:53:33;2.50;;;2.30;;
48911;SDS011;34722;52.108;5.044;2023-07-31T08:55:59;2.03;;;1.83;;
48911;SDS011;34722;52.108;5.044;2023-07-31T08:58:27;3.17;;;2.25;;
48911;SDS011;34722;52.108;5.044;2023-07-31T09:00:57;3.38;;;2.00;;
48911;SDS011;34722;52.108;5.044;2023-07-31T09:03:25;2.30;;;2.10;;
48911;SDS011;34722;52.108;5.044;2023-07-31T09:05:51;2.35;;;2.08;;
48911;SDS011;34722;52.108;5.044;2023-07-31T09:08:19;2.83;;;2.05;;
48911;SDS011;34722;52.108;5.044;2023-07-31T09:10:49;2.38;;;2.15;;
48911;SDS011;34722;52.108;5.044;2023-07-31T09:13:15;2.50;;;2.30;;
48911;SDS011;34722;52.108;5.044;2023-07-31T09:15:42;4.28;;;1.98;;
48911;SDS011;34722;52.108;5.044;2023-07-31T09:18:09;4.55;;;1.98;;
48911;SDS011;34722;52.108;5.044;2023-07-31T09:20:35;2.97;;;2.22;;
48911;SDS011;34722;52.108;5.044;2023-07-31T09:23:11;3.10;;;2.10;;
48911;SDS011;34722;52.108;5.044;2023-07-31T09:25:38;3.25;;;2.47;;
48911;SDS011;34722;52.108;5.044;2023-07-31T09:28:08;2.30;;;2.10;;
48911;SDS011;34722;52.108;5.044;2023-07-31T09:30:50;2.80;;;2.60;;
48911;SDS011;34722;52.108;5.044;2023-07-31T09:33:22;3.85;;;3.05;;
48911;SDS011;34722;52.108;5.044;2023-07-31T09:35:48;5.25;;;3.00;;
48911;SDS011;34722;52.108;5.044;2023-07-31T09:38:17;5.00;;;2.70;;
48911;SDS011;34722;52.108;5.044;2023-07-31T09:43:53;2.40;;;2.20;;
48911;SDS011;34722;52.108;5.044;2023-07-31T09:46:39;3.28;;;2.13;;
48911;SDS011;34722;52.108;5.044;2023-07-31T09:49:06;2.50;;;2.30;;
48911;SDS011;34722;52.108;5.044;2023-07-31T09:51:36;2.53;;;2.33;;
48911;SDS011;34722;52.108;5.044;2023-07-31T09:54:12;2.72;;;2.38;;
48911;SDS011;34722;52.108;5.044;2023-07-31T09:56:43;3.42;;;2.92;;
48911;SDS011;34722;52.108;5.044;2023-07-31T10:02:35;3.35;;;2.67;;
48911;SDS011;34722;52.108;5.044;2023-07-31T10:05:03;6.28;;;2.90;;
48911;SDS011;34722;52.108;5.044;2023-07-31T10:07:30;3.15;;;2.40;;
48911;SDS011;34722;52.108;5.044;2023-07-31T10:09:59;5.25;;;2.95;;
48911;SDS011;34722;52.108;5.044;2023-07-31T10:12:26;4.20;;;3.47;;
48911;SDS011;34722;52.108;5.044;2023-07-31T10:14:56;6.05;;;3.47;;
48911;SDS011;34722;52.108;5.044;2023-07-31T10:17:25;4.53;;;3.30;;
48911;SDS011;34722;52.108;5.044;2023-07-31T10:19:51;4.10;;;3.70;;
48911;SDS011;34722;52.108;5.044;2023-07-31T10:22:19;6.40;;;4.30;;
48911;SDS011;34722;52.108;5.044;2023-07-31T10:24:46;5.55;;;4.20;;
48911;SDS011;34722;52.108;5.044;2023-07-31T10:27:13;6.20;;;4.75;;
48911;SDS011;34722;52.108;5.044;2023-07-31T10:29:39;8.13;;;5.15;;
48911;SDS011;34722;52.108;5.044;2023-07-31T10:32:06;6.40;;;4.47;;
48911;SDS011;34722;52.108;5.044;2023-07-31T10:34:35;6.82;;;3.67;;
48911;SDS011;34722;52.108;5.044;2023-07-31T10:39:59;6.85;;;3.92;;
48911;SDS011;34722;52.108;5.044;2023-07-31T10:42:28;4.75;;;4.20;;
48911;SDS011;34722;52.108;5.044;2023-07-31T10:48:21;4.75;;;4.18;;
48911;SDS011;34722;52.108;5.044;2023-07-31T10:54:16;8.88;;;3.75;;
48911;SDS011;34722;52.108;5.044;2023-07-31T10:56:46;5.03;;;3.67;;
48911;SDS011;34722;52.108;5.044;2023-07-31T11:02:08;5.32;;;4.40;;
48911;SDS011;34722;52.108;5.044;2023-07-31T11:05:06;8.23;;;4.10;;
48911;SDS011;34722;52.108;5.044;2023-07-31T19:34:46;13.30;;;4.40;;
48911;SDS011;34722;52.108;5.044;2023-07-31T19:37:27;10.57;;;3.85;;
48911;SDS011;34722;52.108;5.044;2023-07-31T19:40:00;10.27;;;4.53;;
48911;SDS011;34722;52.108;5.044;2023-07-31T19:42:25;10.70;;;4.18;;
48911;SDS011;34722;52.108;5.044;2023-07-31T19:44:51;10.10;;;4.10;;
48911;SDS011;34722;52.108;5.044;2023-07-31T19:47:16;12.32;;;4.25;;
48911;SDS011;34722;52.108;5.044;2023-07-31T19:49:42;10.25;;;3.95;;
48911;SDS011;34722;52.108;5.044;2023-07-31T19:52:09;11.95;;;5.22;;
48911;SDS011;34722;52.108;5.044;2023-07-31T19:54:34;9.82;;;5.32;;
48911;SDS011;34722;52.108;5.044;2023-07-31T19:57:00;9.98;;;5.70;;
48911;SDS011;34722;52.108;5.044;2023-07-31T19:59:25;12.00;;;6.13;;
48911;SDS011;34722;52.108;5.044;2023-07-31T20:01:51;13.68;;;5.10;;
48911;SDS011;34722;52.108;5.044;2023-07-31T20:04:17;10.57;;;5.25;;
48911;SDS011;34722;52.108;5.044;2023-07-31T20:06:42;8.75;;;5.65;;
48911;SDS011;34722;52.108;5.044;2023-07-31T20:09:08;17.83;;;5.90;;
48911;SDS011;34722;52.108;5.044;2023-07-31T20:11:34;17.63;;;6.35;;
48911;SDS011;34722;52.108;5.044;2023-07-31T20:14:04;10.45;;;5.95;;
48911;SDS011;34722;52.108;5.044;2023-07-31T20:16:30;14.45;;;6.53;;
48911;SDS011;34722;52.108;5.044;2023-07-31T20:18:56;13.27;;;6.57;;
48911;SDS011;34722;52.108;5.044;2023-07-31T20:21:22;16.02;;;6.88;;
48911;SDS011;34722;52.108;5.044;2023-07-31T20:23:47;12.65;;;7.15;;
48911;SDS011;34722;52.108;5.044;2023-07-31T20:26:13;16.05;;;6.75;;
48911;SDS011;34722;52.108;5.044;2023-07-31T20:28:40;22.00;;;6.43;;
48911;SDS011;34722;52.108;5.044;2023-07-31T20:31:07;17.42;;;6.15;;
48911;SDS011;34722;52.108;5.044;2023-07-31T20:33:33;16.25;;;5.43;;
48911;SDS011;34722;52.108;5.044;2023-07-31T20:35:58;13.75;;;4.82;;
48911;SDS011;34722;52.108;5.044;2023-07-31T20:38:24;11.93;;;4.32;;
48911;SDS011;34722;52.108;5.044;2023-07-31T20:40:50;17.15;;;4.65;;
48911;SDS011;34722;52.108;5.044;2023-07-31T20:43:16;13.98;;;4.15;;
48911;SDS011;34722;52.108;5.044;2023-07-31T20:45:43;10.73;;;4.35;;
48911;SDS011;34722;52.108;5.044;2023-07-31T20:48:09;13.13;;;4.85;;
48911;SDS011;34722;52.108;5.044;2023-07-31T20:50:36;13.52;;;4.63;;
48911;SDS011;34722;52.108;5.044;2023-07-31T20:53:03;14.93;;;4.43;;
48911;SDS011;34722;52.108;5.044;2023-07-31T20:55:29;11.93;;;3.63;;
48911;SDS011;34722;52.108;5.044;2023-07-31T20:57:55;11.32;;;3.17;;
48911;SDS011;34722;52.108;5.044;2023-07-31T21:00:20;8.98;;;2.92;;
48911;SDS011;34722;52.108;5.044;2023-07-31T21:02:46;13.75;;;3.50;;
48911;SDS011;34722;52.108;5.044;2023-07-31T21:05:12;12.15;;;3.55;;
48911;SDS011;34722;52.108;5.044;2023-07-31T21:07:38;9.15;;;3.40;;
48911;SDS011;34722;52.108;5.044;2023-07-31T21:10:07;8.27;;;2.95;;
48911;SDS011;34722;52.108;5.044;2023-07-31T21:12:36;9.90;;;2.65;;
48911;SDS011;34722;52.108;5.044;2023-07-31T21:15:05;9.15;;;3.67;;
48911;SDS011;34722;52.108;5.044;2023-07-31T21:17:34;7.30;;;2.67;;
48911;SDS011;34722;52.108;5.044;2023-07-31T21:20:01;8.75;;;2.38;;
48911;SDS011;34722;52.108;5.044;2023-07-31T21:22:28;11.27;;;2.67;;
48911;SDS011;34722;52.108;5.044;2023-07-31T21:24:53;10.80;;;2.55;;
48911;SDS011;34722;52.108;5.044;2023-07-31T21:27:19;7.25;;;2.10;;
48911;SDS011;34722;52.108;5.044;2023-07-31T21:29:45;5.50;;;2.70;;
48911;SDS011;34722;52.108;5.044;2023-07-31T21:32:11;9.77;;;2.90;;
48911;SDS011;34722;52.108;5.044;2023-07-31T21:34:37;7.45;;;2.60;;
48911;SDS011;34722;52.108;5.044;2023-07-31T21:37:07;7.13;;;2.88;;
48911;SDS011;34722;52.108;5.044;2023-07-31T21:39:33;6.82;;;2.50;;
48911;SDS011;34722;52.108;5.044;2023-07-31T21:41:59;7.78;;;2.72;;
48911;SDS011;34722;52.108;5.044;2023-07-31T21:44:28;7.88;;;3.10;;
48911;SDS011;34722;52.108;5.044;2023-07-31T21:46:53;9.85;;;3.10;;
48911;SDS011;34722;52.108;5.044;2023-07-31T21:49:19;10.80;;;3.25;;
48911;SDS011;34722;52.108;5.044;2023-07-31T21:51:47;8.90;;;2.75;;
48911;SDS011;34722;52.108;5.044;2023-07-31T21:54:13;8.55;;;3.00;;
48911;SDS011;34722;52.108;5.044;2023-07-31T21:56:38;6.55;;;3.10;;
48911;SDS011;34722;52.108;5.044;2023-07-31T21:59:04;6.15;;;2.80;;
48911;SDS011;34722;52.108;5.044;2023-07-31T22:01:29;7.65;;;2.67;;
48911;SDS011;34722;52.108;5.044;2023-07-31T22:03:55;8.25;;;2.95;;
48911;SDS011;34722;52.108;5.044;2023-07-31T22:06:20;8.95;;;2.70;;
48911;SDS011;34722;52.108;5.044;2023-07-31T22:08:46;10.27;;;3.10;;
48911;SDS011;34722;52.108;5.044;2023-07-31T22:11:12;5.10;;;2.42;;
48911;SDS011;34722;52.108;5.044;2023-07-31T22:13:37;8.82;;;3.13;;
48911;SDS011;34722;52.108;5.044;2023-07-31T22:16:03;6.88;;;3.22;;
48911;SDS011;34722;52.108;5.044;2023-07-31T22:18:28;12.45;;;3.20;;
48911;SDS011;34722;52.108;5.044;2023-07-31T22:20:54;12.07;;;3.38;;
48911;SDS011;34722;52.108;5.044;2023-07-31T22:23:20;11.40;;;2.63;;
48911;SDS011;34722;52.108;5.044;2023-07-31T22:25:45;11.98;;;4.75;;
48911;SDS011;34722;52.108;5.044;2023-07-31T22:28:11;7.72;;;3.00;;
48911;SDS011;34722;52.108;5.044;2023-07-31T22:30:37;8.57;;;4.22;;
48911;SDS011;34722;52.108;5.044;2023-07-31T22:33:02;8.25;;;3.50;;
48911;SDS011;34722;52.108;5.044;2023-07-31T22:35:28;6.78;;;3.25;;
48911;SDS011;34722;52.108;5.044;2023-07-31T22:37:53;8.10;;;3.80;;
48911;SDS011;34722;52.108;5.044;2023-07-31T22:40:19;9.40;;;3.30;;
48911;SDS011;34722;52.108;5.044;2023-07-31T22:42:56;8.32;;;3.33;;
48911;SDS011;34722;52.108;5.044;2023-07-31T22:52:12;7.72;;;3.08;;
48911;SDS011;34722;52.108;5.044;2023-07-31T22:54:38;5.15;;;2.80;;
48911;SDS011;34722;52.108;5.044;2023-07-31T22:57:10;4.43;;;2.67;;
48911;SDS011;34722;52.108;5.044;2023-07-31T22:59:39;7.05;;;3.50;;
48911;SDS011;34722;52.108;5.044;2023-07-31T23:02:10;10.95;;;3.10;;
48911;SDS011;34722;52.108;5.044;2023-07-31T23:04:39;10.55;;;3.10;;
48911;SDS011;34722;52.108;5.044;2023-07-31T23:07:06;10.25;;;3.22;;
48911;SDS011;34722;52.108;5.044;2023-07-31T23:09:32;8.57;;;3.30;;
48911;SDS011;34722;52.108;5.044;2023-07-31T23:11:57;7.32;;;3.15;;
48911;SDS011;34722;52.108;5.044;2023-07-31T23:14:26;6.38;;;3.58;;
48911;SDS011;34722;52.108;5.044;2023-07-31T23:16:55;4.15;;;2.95;;
48911;SDS011;34722;52.108;5.044;2023-07-31T23:19:24;7.50;;;2.92;;
48911;SDS011;34722;52.108;5.044;2023-07-31T23:21:50;8.68;;;3.42;;
48911;SDS011;34722;52.108;5.044;2023-07-31T23:24:16;8.32;;;3.83;;
48911;SDS011;34722;52.108;5.044;2023-07-31T23:26:45;9.40;;;3.63;;
48911;SDS011;34722;52.108;5.044;2023-07-31T23:29:13;7.93;;;3.58;;
48911;SDS011;34722;52.108;5.044;2023-07-31T23:31:38;9.55;;;3.95;;
48911;SDS011;34722;52.108;5.044;2023-07-31T23:34:06;10.15;;;3.90;;
48911;SDS011;34722;52.108;5.044;2023-07-31T23:36:32;10.85;;;4.13;;
48911;SDS011;34722;52.108;5.044;2023-07-31T23:39:00;7.90;;;3.63;;